createdAt,value
2022-09-05T00:00:05.160Z,18.66
2022-09-05T00:01:27.285Z,18.66
2022-09-05T00:02:49.196Z,18.61
2022-09-05T00:04:24.290Z,18.58
2022-09-05T00:05:27.240Z,18.54
2022-09-05T00:06:43.681Z,18.52
2022-09-05T00:08:01.061Z,18.51
2022-09-05T00:09:17.746Z,18.48
2022-09-05T00:10:35.978Z,18.43
2022-09-05T00:11:53.923Z,18.41
2022-09-05T00:13:10.387Z,18.34
2022-09-05T00:14:38.297Z,18.31
2022-09-05T00:15:48.089Z,18.24
2022-09-05T00:17:04.464Z,18.23
2022-09-05T00:21:36.750Z,18.20
2022-09-05T00:23:06.182Z,18.20
2022-09-05T00:24:31.033Z,18.11
2022-09-05T00:24:32.022Z,18.17
2022-09-05T00:24:36.645Z,18.15
2022-09-05T00:26:30.517Z,18.08
2022-09-05T00:27:47.180Z,18.06
2022-09-05T00:29:03.641Z,18.08
2022-09-05T00:31:05.898Z,18.08
2022-09-05T00:31:53.610Z,18.09
2022-09-05T00:33:03.469Z,18.11
2022-09-05T00:34:26.731Z,18.13
2022-09-05T00:35:49.906Z,18.09
2022-09-05T00:37:06.312Z,18.12
2022-09-05T00:38:27.573Z,18.11
2022-09-05T00:39:47.951Z,18.11
2022-09-05T00:41:09.164Z,18.09
2022-09-05T00:42:25.556Z,18.06
2022-09-05T00:43:41.926Z,18.09
2022-09-05T00:44:58.611Z,18.08
2022-09-05T00:46:15.171Z,18.08
2022-09-05T00:47:31.555Z,18.11
2022-09-05T00:48:49.886Z,18.09
2022-09-05T00:50:06.344Z,18.08
2022-09-05T00:51:29.316Z,18.11
2022-09-05T00:52:52.942Z,18.11
2022-09-05T00:54:05.559Z,18.08
2022-09-05T00:55:21.997Z,18.09
2022-09-05T00:56:38.376Z,18.12
2022-09-05T00:57:55.048Z,18.09
2022-09-05T00:59:11.459Z,18.12
2022-09-05T01:00:27.858Z,18.13
2022-09-05T01:01:44.341Z,18.12
2022-09-05T01:03:02.830Z,18.11
2022-09-05T01:04:19.551Z,18.12
2022-09-05T01:05:35.955Z,18.12
2022-09-05T01:06:52.332Z,18.17
2022-09-05T01:08:08.780Z,18.13
2022-09-05T01:09:27.122Z,18.18
2022-09-05T01:10:43.803Z,18.20
2022-09-05T01:12:02.143Z,18.23
2022-09-05T01:13:18.592Z,18.21
2022-09-05T01:14:36.963Z,18.18
2022-09-05T01:15:53.455Z,18.20
2022-09-05T01:17:10.114Z,18.23
2022-09-05T01:18:26.636Z,18.23
2022-09-05T01:19:43.007Z,18.23
2022-09-05T01:20:59.396Z,18.20
2022-09-05T01:22:15.830Z,18.15
2022-09-05T01:23:32.498Z,18.13
2022-09-05T01:24:50.817Z,18.11
2022-09-05T01:26:07.208Z,18.09
2022-09-05T01:27:23.612Z,18.09
2022-09-05T01:29:15.152Z,18.11
2022-09-05T01:30:06.081Z,18.09
2022-09-05T01:31:22.533Z,18.09
2022-09-05T01:32:38.955Z,18.08
2022-09-05T01:33:55.350Z,18.12
2022-09-05T01:35:13.690Z,18.11
2022-09-05T01:36:30.371Z,18.08
2022-09-05T01:37:46.800Z,18.06
2022-09-05T01:39:51.612Z,18.05
2022-09-05T01:40:24.462Z,18.05
2022-09-05T01:41:42.841Z,18.01
2022-09-05T01:42:59.494Z,18.01
2022-09-05T01:44:15.895Z,17.97
2022-09-05T01:45:39.431Z,17.97
2022-09-05T01:46:55.616Z,18.01
2022-09-05T01:48:12.057Z,17.97
2022-09-05T01:49:28.746Z,17.99
2022-09-05T01:50:45.127Z,17.97
2022-09-05T01:52:01.596Z,17.96
2022-09-05T01:53:18.038Z,17.94
2022-09-05T01:54:34.638Z,17.94
2022-09-05T01:56:06.763Z,17.93
2022-09-05T01:57:12.620Z,17.87
2022-09-05T01:58:32.356Z,17.86
2022-09-05T01:59:48.763Z,17.84
2022-09-05T02:01:31.646Z,17.84
2022-09-05T02:02:27.488Z,17.83
2022-09-05T02:03:45.847Z,17.84
2022-09-05T02:05:02.291Z,17.84
2022-09-05T02:06:20.631Z,17.83
2022-09-05T02:07:37.030Z,17.84
2022-09-05T02:08:53.683Z,17.83
2022-09-05T02:10:10.122Z,17.83
2022-09-05T02:11:36.099Z,17.86
2022-09-05T02:13:02.178Z,17.84
2022-09-05T02:14:08.978Z,17.79
2022-09-05T02:15:25.731Z,17.76
2022-09-05T02:16:44.034Z,17.76
2022-09-05T02:18:00.416Z,17.73
2022-09-05T02:19:16.795Z,17.71
2022-09-05T02:20:33.236Z,17.65
2022-09-05T02:21:56.660Z,17.66
2022-09-05T02:23:32.649Z,17.69
2022-09-05T02:24:32.469Z,17.66
2022-09-05T02:26:02.983Z,17.71
2022-09-05T02:27:46.142Z,17.66
2022-09-05T02:28:35.803Z,17.68
2022-09-05T02:29:52.179Z,17.71
2022-09-05T02:31:19.112Z,17.72
2022-09-05T02:32:33.789Z,17.72
2022-09-05T02:34:01.678Z,17.72
2022-09-05T02:35:16.269Z,17.71
2022-09-05T02:36:32.702Z,17.69
2022-09-05T02:43:51.873Z,17.68
2022-09-05T02:45:00.222Z,17.66
2022-09-05T02:45:07.592Z,17.66
2022-09-05T02:45:07.732Z,17.65
2022-09-05T02:45:09.113Z,17.65
2022-09-05T02:45:14.078Z,17.65
2022-09-05T02:46:02.971Z,17.63
2022-09-05T02:47:19.705Z,17.62
2022-09-05T02:48:38.049Z,17.62
2022-09-05T02:53:46.939Z,17.62
2022-09-05T02:56:18.543Z,17.59
2022-09-05T02:57:30.501Z,17.56
2022-09-05T02:57:33.357Z,17.54
2022-09-05T02:57:38.338Z,17.53
2022-09-05T02:57:44.299Z,17.52
2022-09-05T02:58:07.060Z,17.47
2022-09-05T02:59:35.767Z,17.46
2022-09-05T03:00:51.017Z,17.41
2022-09-05T03:02:25.450Z,17.43
2022-09-05T03:03:28.710Z,17.43
2022-09-05T03:04:45.471Z,17.43
2022-09-05T03:06:04.212Z,17.38
2022-09-05T03:07:20.581Z,17.39
2022-09-05T03:08:36.998Z,17.41
2022-09-05T03:09:53.363Z,17.37
2022-09-05T03:11:10.083Z,17.37
2022-09-05T03:12:28.400Z,17.35
2022-09-05T03:13:48.757Z,17.34
2022-09-05T03:15:22.397Z,17.37
2022-09-05T03:16:28.753Z,17.38
2022-09-05T03:17:45.146Z,17.32
2022-09-05T03:19:01.566Z,17.37
2022-09-05T03:20:17.937Z,17.32
2022-09-05T03:21:34.327Z,17.30
2022-09-05T03:22:50.991Z,17.32
2022-09-05T03:24:07.421Z,17.31
2022-09-05T03:25:23.798Z,17.28
2022-09-05T03:26:40.188Z,17.27
2022-09-05T03:27:56.617Z,17.31
2022-09-05T03:29:13.324Z,17.28
2022-09-05T03:30:29.791Z,17.28
2022-09-05T03:31:48.150Z,17.27
2022-09-05T03:33:04.571Z,17.25
2022-09-05T03:34:22.932Z,17.22
2022-09-05T03:35:39.607Z,17.20
2022-09-05T03:36:57.955Z,17.22
2022-09-05T03:38:14.376Z,17.22
2022-09-05T03:39:30.816Z,17.25
2022-09-05T03:40:47.172Z,17.22
2022-09-05T03:42:03.843Z,17.22
2022-09-05T03:43:25.112Z,17.27
2022-09-05T03:44:41.553Z,17.22
2022-09-05T03:45:59.908Z,17.20
2022-09-05T03:47:16.274Z,17.20
2022-09-05T03:48:32.940Z,17.22
2022-09-05T03:52:48.484Z,17.22
2022-09-05T03:57:05.272Z,17.24
2022-09-05T03:57:10.566Z,17.17
2022-09-05T03:57:19.612Z,17.19
2022-09-05T03:57:22.885Z,17.20
2022-09-05T03:57:23.098Z,17.17
2022-09-05T03:58:16.517Z,17.16
2022-09-05T03:59:25.052Z,17.12
2022-09-05T04:00:43.752Z,17.10
2022-09-05T04:08:09.442Z,17.09
2022-09-05T04:08:14.181Z,17.09
2022-09-05T04:08:16.944Z,16.99
2022-09-05T04:08:28.023Z,17.02
2022-09-05T04:08:28.964Z,17.04
2022-09-05T04:08:48.951Z,16.99
2022-09-05T04:10:05.583Z,16.98
2022-09-05T04:11:23.954Z,16.99
2022-09-05T04:12:40.647Z,16.97
2022-09-05T04:13:57.063Z,16.97
2022-09-05T04:15:13.454Z,16.97
2022-09-05T04:16:31.842Z,16.97
2022-09-05T04:17:50.221Z,16.97
2022-09-05T04:19:08.878Z,16.97
2022-09-05T04:20:27.216Z,16.97
2022-09-05T04:21:43.650Z,16.97
2022-09-05T04:23:02.016Z,16.98
2022-09-05T04:24:20.379Z,16.97
2022-09-05T04:25:38.987Z,16.95
2022-09-05T04:26:57.410Z,16.97
2022-09-05T04:28:15.759Z,16.97
2022-09-05T04:29:34.139Z,16.98
2022-09-05T04:30:51.441Z,16.97
2022-09-05T04:32:18.137Z,16.98
2022-09-05T04:33:36.117Z,16.97
2022-09-05T04:34:53.545Z,17.01
2022-09-05T04:36:18.202Z,16.98
2022-09-05T04:37:47.810Z,17.01
2022-09-05T04:38:58.306Z,17.02
2022-09-05T04:40:20.013Z,17.04
2022-09-05T04:41:39.736Z,17.06
2022-09-05T04:42:57.531Z,17.10
2022-09-05T04:44:16.293Z,17.12
2022-09-05T04:45:36.051Z,17.13
2022-09-05T04:46:54.954Z,17.14
2022-09-05T04:48:13.314Z,17.16
2022-09-05T04:49:34.129Z,17.20
2022-09-05T04:50:52.745Z,17.19
2022-09-05T04:52:14.797Z,17.17
2022-09-05T04:53:34.958Z,17.16
2022-09-05T04:54:51.437Z,17.19
2022-09-05T04:56:09.803Z,17.17
2022-09-05T04:57:28.952Z,17.16
2022-09-05T05:00:38.173Z,17.14
2022-09-05T05:06:04.558Z,17.13
2022-09-05T05:06:05.503Z,17.14
2022-09-05T05:06:10.496Z,17.13
2022-09-05T05:06:11.398Z,17.13
2022-09-05T05:06:14.483Z,17.14
2022-09-05T05:07:06.191Z,17.19
2022-09-05T05:08:38.222Z,17.17
2022-09-05T05:09:47.852Z,17.24
2022-09-05T05:14:49.897Z,17.25
2022-09-05T05:18:00.831Z,17.24
2022-09-05T05:18:00.928Z,17.27
2022-09-05T05:18:11.818Z,17.32
2022-09-05T05:18:11.987Z,17.30
2022-09-05T05:18:42.218Z,17.30
2022-09-05T05:19:31.145Z,17.32
2022-09-05T05:20:48.659Z,17.32
2022-09-05T05:22:07.966Z,17.31
2022-09-05T05:23:24.465Z,17.30
2022-09-05T05:24:41.036Z,17.25
2022-09-05T05:25:58.451Z,17.27
2022-09-05T05:27:17.707Z,17.19
2022-09-05T05:28:36.918Z,17.25
2022-09-05T05:29:54.343Z,17.24
2022-09-05T05:31:11.943Z,17.25
2022-09-05T05:32:46.081Z,17.27
2022-09-05T05:33:51.560Z,17.27
2022-09-05T05:35:12.401Z,17.27
2022-09-05T05:36:31.544Z,17.27
2022-09-05T05:37:48.903Z,17.30
2022-09-05T05:39:06.313Z,17.28
2022-09-05T05:40:24.265Z,17.31
2022-09-05T05:43:33.941Z,17.37
2022-09-05T05:44:53.887Z,17.38
2022-09-05T05:46:13.329Z,17.45
2022-09-05T05:47:31.800Z,17.47
2022-09-05T05:48:57.494Z,17.50
2022-09-05T05:50:14.820Z,17.53
2022-09-05T05:51:34.613Z,17.56
2022-09-05T05:52:57.134Z,17.59
2022-09-05T05:54:17.025Z,17.63
2022-09-05T05:55:52.196Z,17.66
2022-09-05T05:56:57.868Z,17.69
2022-09-05T05:58:15.496Z,17.75
2022-09-05T05:59:32.899Z,17.76
2022-09-05T06:00:52.106Z,17.79
2022-09-05T06:02:10.090Z,17.79
2022-09-05T06:03:28.582Z,17.81
2022-09-05T06:04:47.505Z,17.86
2022-09-05T06:06:05.854Z,17.90
2022-09-05T06:07:25.032Z,17.94
2022-09-05T06:13:36.251Z,17.96
2022-09-05T06:14:52.022Z,18.03
2022-09-05T06:14:58.420Z,18.08
2022-09-05T06:15:02.369Z,18.09
2022-09-05T06:15:03.766Z,18.05
2022-09-05T06:15:36.597Z,18.13
2022-09-05T06:16:55.204Z,18.18
2022-09-05T06:18:14.047Z,18.24
2022-09-05T06:19:36.242Z,18.28
2022-09-05T06:22:05.835Z,18.30
2022-09-05T06:22:21.064Z,18.38
2022-09-05T06:23:40.280Z,18.42
2022-09-05T06:25:07.684Z,18.46
2022-09-05T06:26:21.431Z,18.51
2022-09-05T06:27:43.940Z,18.54
2022-09-05T06:29:02.920Z,18.60
2022-09-05T06:30:21.489Z,18.68
2022-09-05T06:31:41.339Z,18.74
2022-09-05T06:33:00.571Z,18.75
2022-09-05T06:34:30.864Z,18.82
2022-09-05T06:35:40.583Z,18.89
2022-09-05T06:36:59.543Z,18.94
2022-09-05T06:38:16.890Z,19.05
2022-09-05T06:39:35.863Z,19.12
2022-09-05T06:40:54.904Z,19.20
2022-09-05T06:42:28.442Z,19.24
2022-09-05T06:43:36.005Z,19.31
2022-09-05T06:44:53.344Z,19.41
2022-09-05T06:46:15.831Z,19.44
2022-09-05T06:47:38.114Z,19.50
2022-09-05T06:49:33.467Z,19.56
2022-09-05T06:50:24.491Z,19.64
2022-09-05T06:51:44.173Z,19.72
2022-09-05T06:53:07.039Z,19.81
2022-09-05T06:54:24.780Z,19.89
2022-09-05T06:55:42.129Z,19.96
2022-09-05T06:56:59.610Z,20.04
2022-09-05T06:58:18.822Z,20.14
2022-09-05T06:59:37.282Z,20.23
2022-09-05T07:00:55.288Z,20.41
2022-09-05T07:02:12.758Z,20.52
2022-09-05T07:03:32.350Z,20.68
2022-09-05T07:05:24.095Z,20.82
2022-09-05T07:06:13.598Z,21.00
2022-09-05T07:07:35.818Z,21.14
2022-09-05T07:08:53.166Z,21.32
2022-09-05T07:10:35.005Z,21.50
2022-09-05T07:11:34.635Z,21.66
2022-09-05T07:12:52.130Z,21.82
2022-09-05T07:14:10.965Z,22.01
2022-09-05T07:15:29.971Z,22.19
2022-09-05T07:16:48.830Z,22.43
2022-09-05T07:18:10.504Z,22.66
2022-09-05T07:19:28.364Z,22.80
2022-09-05T07:21:15.917Z,22.98
2022-09-05T07:22:25.801Z,23.15
2022-09-05T07:24:05.692Z,23.34
2022-09-05T07:24:56.962Z,23.54
2022-09-05T07:26:39.570Z,23.71
2022-09-05T07:27:49.838Z,23.91
2022-09-05T07:29:02.863Z,24.08
2022-09-05T07:30:22.459Z,24.21
2022-09-05T07:31:41.451Z,24.41
2022-09-05T07:33:00.311Z,24.59
2022-09-05T07:34:21.233Z,24.81
2022-09-05T07:35:41.622Z,25.01
2022-09-05T07:37:13.991Z,25.19
2022-09-05T07:38:26.699Z,25.38
2022-09-05T07:39:45.758Z,25.59
2022-09-05T07:41:03.398Z,25.71
2022-09-05T07:42:22.332Z,25.92
2022-09-05T07:43:41.659Z,26.16
2022-09-05T07:45:00.687Z,26.30
2022-09-05T07:46:18.046Z,26.52
2022-09-05T07:47:37.140Z,26.71
2022-09-05T07:48:55.952Z,26.94
2022-09-05T07:51:54.814Z,27.13
2022-09-05T07:56:46.030Z,27.35
2022-09-05T07:56:49.543Z,27.53
2022-09-05T07:57:03.980Z,27.90
2022-09-05T07:57:04.796Z,27.78
2022-09-05T07:57:25.361Z,28.01
2022-09-05T07:58:32.690Z,28.10
2022-09-05T07:59:50.047Z,28.13
2022-09-05T08:01:07.732Z,28.16
2022-09-05T08:02:27.087Z,28.24
2022-09-05T08:03:45.958Z,28.32
2022-09-05T08:05:05.143Z,28.38
2022-09-05T08:07:47.960Z,28.47
2022-09-05T08:07:48.903Z,28.54
2022-09-05T08:09:21.484Z,28.65
2022-09-05T08:10:54.987Z,28.74
2022-09-05T08:11:58.976Z,29.00
2022-09-05T08:13:24.307Z,29.12
2022-09-05T08:14:45.280Z,29.17
2022-09-05T08:16:10.406Z,29.25
2022-09-05T08:17:30.344Z,29.44
2022-09-05T08:18:48.216Z,29.63
2022-09-05T08:20:08.680Z,29.81
2022-09-05T08:21:28.046Z,29.98
2022-09-05T08:22:48.043Z,30.18
2022-09-05T08:24:13.135Z,30.36
2022-09-05T08:25:30.149Z,30.51
2022-09-05T08:26:52.348Z,30.71
2022-09-05T08:28:10.491Z,30.92
2022-09-05T08:29:28.905Z,31.05
2022-09-05T08:30:46.763Z,31.14
2022-09-05T08:32:04.084Z,31.30
2022-09-05T08:33:22.925Z,31.51
2022-09-05T08:34:44.664Z,31.70
2022-09-05T08:36:02.873Z,31.70
2022-09-05T08:37:20.945Z,31.68
2022-09-05T08:38:40.883Z,31.57
2022-09-05T08:40:10.562Z,31.59
2022-09-05T08:41:25.931Z,31.70
2022-09-05T08:43:49.587Z,31.75
2022-09-05T08:46:35.532Z,31.74
2022-09-05T08:46:39.204Z,31.74
2022-09-05T08:46:56.572Z,31.64
2022-09-05T08:48:14.619Z,31.76
2022-09-05T08:49:37.857Z,31.87
2022-09-05T08:50:54.563Z,32.11
2022-09-05T08:52:13.447Z,32.31
2022-09-05T08:53:46.631Z,32.28
2022-09-05T08:55:02.816Z,32.16
2022-09-05T08:56:20.856Z,31.89
2022-09-05T08:57:40.205Z,31.75
2022-09-05T08:59:31.780Z,31.70
2022-09-05T09:00:24.502Z,31.70
2022-09-05T09:01:53.048Z,31.63
2022-09-05T09:03:05.166Z,31.74
2022-09-05T09:04:43.648Z,31.79
2022-09-05T09:06:11.870Z,31.87
2022-09-05T09:07:47.107Z,31.99
2022-09-05T09:08:31.721Z,32.31
2022-09-05T09:09:49.091Z,32.46
2022-09-05T09:11:06.503Z,32.55
2022-09-05T09:12:25.972Z,32.77
2022-09-05T09:13:44.832Z,33.04
2022-09-05T09:15:03.681Z,33.14
2022-09-05T09:16:22.775Z,33.26
2022-09-05T09:17:40.115Z,33.37
2022-09-05T09:18:57.986Z,33.52
2022-09-05T09:20:16.975Z,33.66
2022-09-05T09:21:35.406Z,33.55
2022-09-05T09:22:54.241Z,33.42
2022-09-05T09:24:12.579Z,33.12
2022-09-05T09:25:33.871Z,32.91
2022-09-05T09:26:52.451Z,32.69
2022-09-05T09:28:48.916Z,32.36
2022-09-05T09:29:33.960Z,32.14
2022-09-05T09:30:51.367Z,31.97
2022-09-05T09:32:12.242Z,32.06
2022-09-05T09:33:31.611Z,32.26
2022-09-05T09:34:50.443Z,32.54
2022-09-05T09:36:12.164Z,32.75
2022-09-05T09:37:49.560Z,32.77
2022-09-05T09:38:51.725Z,32.75
2022-09-05T09:40:09.174Z,32.58
2022-09-05T09:41:27.109Z,32.28
2022-09-05T09:42:45.968Z,32.01
2022-09-05T09:44:03.318Z,31.63
2022-09-05T09:45:28.196Z,31.39
2022-09-05T09:46:46.274Z,31.37
2022-09-05T09:48:04.150Z,31.26
2022-09-05T09:49:23.675Z,31.17
2022-09-05T09:50:45.055Z,31.12
2022-09-05T09:52:03.301Z,31.49
2022-09-05T09:53:21.245Z,31.97
2022-09-05T09:54:51.045Z,32.24
2022-09-05T09:56:09.738Z,32.46
2022-09-05T09:57:35.040Z,32.45
2022-09-05T09:58:58.850Z,32.50
2022-09-05T10:00:20.590Z,32.38
2022-09-05T10:01:39.077Z,32.20
2022-09-05T10:06:54.113Z,31.98
2022-09-05T10:10:36.002Z,31.57
2022-09-05T10:10:38.648Z,31.84
2022-09-05T10:10:49.915Z,31.42
2022-09-05T10:10:50.232Z,31.24
2022-09-05T10:10:57.451Z,31.10
2022-09-05T10:12:35.656Z,31.23
2022-09-05T10:13:54.073Z,31.05
2022-09-05T10:15:18.617Z,31.01
2022-09-05T10:16:36.608Z,30.99
2022-09-05T10:17:53.962Z,30.92
2022-09-05T10:19:13.598Z,30.83
2022-09-05T10:20:32.442Z,30.78
2022-09-05T10:22:34.454Z,30.85
2022-09-05T10:23:12.938Z,30.73
2022-09-05T10:24:30.309Z,30.58
2022-09-05T10:25:49.179Z,30.45
2022-09-05T10:27:07.518Z,30.39
2022-09-05T10:28:26.341Z,30.35
2022-09-05T10:29:46.310Z,30.36
2022-09-05T10:34:39.441Z,30.70
2022-09-05T10:35:06.117Z,31.04
2022-09-05T10:35:09.385Z,31.07
2022-09-05T10:35:22.474Z,31.05
2022-09-05T10:36:37.223Z,31.15
2022-09-05T10:37:55.591Z,31.44
2022-09-05T10:39:13.510Z,31.76
2022-09-05T10:40:37.304Z,32.23
2022-09-05T10:41:55.388Z,32.63
2022-09-05T10:43:12.729Z,32.95
2022-09-05T10:44:30.108Z,33.29
2022-09-05T10:45:47.489Z,33.47
2022-09-05T10:47:04.931Z,33.51
2022-09-05T10:48:24.531Z,33.60
2022-09-05T10:49:42.003Z,33.81
2022-09-05T10:51:00.920Z,33.93
2022-09-05T10:52:19.728Z,33.97
2022-09-05T10:53:39.935Z,34.19
2022-09-05T10:55:13.640Z,34.41
2022-09-05T10:56:20.765Z,34.64
2022-09-05T10:57:40.142Z,34.37
2022-09-05T11:01:48.542Z,34.04
2022-09-05T11:02:20.100Z,33.85
2022-09-05T11:02:20.819Z,33.60
2022-09-05T11:03:22.346Z,33.45
2022-09-05T11:04:31.601Z,33.63
2022-09-05T11:05:53.771Z,33.45
2022-09-05T11:07:12.650Z,33.78
2022-09-05T11:08:30.041Z,33.93
2022-09-05T11:09:49.432Z,33.66
2022-09-05T11:11:11.876Z,33.57
2022-09-05T11:12:34.066Z,33.70
2022-09-05T11:13:51.508Z,33.91
2022-09-05T11:15:09.978Z,33.98
2022-09-05T11:16:27.319Z,34.22
2022-09-05T11:17:44.938Z,34.41
2022-09-05T11:19:03.326Z,34.42
2022-09-05T11:20:26.116Z,34.38
2022-09-05T11:21:44.392Z,34.57
2022-09-05T11:23:04.693Z,34.55
2022-09-05T11:24:27.274Z,34.79
2022-09-05T11:25:44.899Z,34.82
2022-09-05T11:27:24.315Z,34.75
2022-09-05T11:28:24.942Z,34.87
2022-09-05T11:29:44.192Z,35.14
2022-09-05T11:31:03.113Z,35.28
2022-09-05T11:39:46.713Z,35.19
2022-09-05T11:39:50.385Z,35.29
2022-09-05T11:39:54.592Z,35.26
2022-09-05T11:39:56.071Z,34.47
2022-09-05T11:40:08.462Z,34.80
2022-09-05T11:40:10.857Z,35.28
2022-09-05T11:40:52.685Z,34.28
2022-09-05T11:42:03.636Z,33.97
2022-09-05T11:43:21.017Z,33.76
2022-09-05T11:44:40.349Z,33.63
2022-09-05T11:45:59.289Z,33.52
2022-09-05T11:47:29.857Z,33.37
2022-09-05T11:48:41.842Z,33.24
2022-09-05T11:50:02.929Z,32.98
2022-09-05T11:51:34.036Z,32.72
2022-09-05T11:52:49.493Z,32.65
2022-09-05T11:54:08.896Z,32.91
2022-09-05T11:55:26.228Z,32.83
2022-09-05T11:56:46.023Z,33.03
2022-09-05T11:58:44.253Z,33.37
2022-09-05T11:59:33.309Z,33.64
2022-09-05T12:00:49.409Z,33.82
2022-09-05T12:02:16.954Z,33.92
2022-09-05T12:03:57.632Z,34.16
2022-09-05T12:05:49.606Z,34.38
2022-09-05T12:06:20.770Z,34.50
2022-09-05T12:07:39.813Z,34.50
2022-09-05T12:09:01.299Z,34.62
2022-09-05T12:10:45.792Z,34.75
2022-09-05T12:11:44.389Z,34.72
2022-09-05T12:13:03.328Z,34.95
2022-09-05T12:14:26.402Z,35.17
2022-09-05T12:16:03.071Z,35.39
2022-09-05T12:17:16.939Z,35.57
2022-09-05T12:18:35.654Z,35.75
2022-09-05T12:19:53.572Z,35.95
2022-09-05T12:21:19.597Z,36.03
2022-09-05T12:22:36.792Z,36.20
2022-09-05T12:24:13.482Z,36.51
2022-09-05T12:25:26.749Z,36.59
2022-09-05T12:27:40.032Z,36.59
2022-09-05T12:29:27.198Z,36.67
2022-09-05T12:29:29.405Z,36.81
2022-09-05T12:31:00.453Z,36.75
2022-09-05T12:33:52.400Z,36.71
2022-09-05T12:36:01.667Z,35.85
2022-09-05T12:36:03.746Z,35.97
2022-09-05T12:40:05.087Z,36.33
2022-09-05T12:40:43.206Z,36.70
2022-09-05T12:40:55.325Z,37.04
2022-09-05T12:41:37.138Z,37.25
2022-09-05T12:42:15.155Z,37.00
2022-09-05T12:44:32.563Z,36.47
2022-09-05T12:44:46.977Z,36.23
2022-09-05T12:46:12.541Z,36.19
2022-09-05T12:47:32.159Z,35.88
2022-09-05T12:48:49.579Z,35.51
2022-09-05T12:50:14.408Z,35.76
2022-09-05T12:51:45.417Z,36.09
2022-09-05T12:52:55.239Z,36.14
2022-09-05T12:54:32.577Z,36.09
2022-09-05T12:55:39.515Z,36.19
2022-09-05T13:00:12.369Z,36.36
2022-09-05T13:03:01.532Z,36.48
2022-09-05T13:03:01.613Z,36.41
2022-09-05T13:03:05.724Z,36.44
2022-09-05T13:03:14.369Z,36.51
2022-09-05T13:04:17.290Z,36.22
2022-09-05T13:05:19.792Z,36.00
2022-09-05T13:06:38.287Z,35.69
2022-09-05T13:07:55.729Z,35.46
2022-09-05T13:09:14.966Z,35.14
2022-09-05T13:14:49.000Z,34.85
2022-09-05T13:14:56.581Z,34.70
2022-09-05T13:14:58.212Z,34.67
2022-09-05T13:15:06.001Z,34.90
2022-09-05T13:16:03.445Z,35.09
2022-09-05T13:17:22.356Z,35.36
2022-09-05T13:18:41.252Z,35.53
2022-09-05T13:19:59.165Z,35.51
2022-09-05T13:21:23.041Z,35.65
2022-09-05T13:22:48.680Z,35.92
2022-09-05T13:24:04.664Z,36.13
2022-09-05T13:25:22.105Z,36.14
2022-09-05T13:26:44.901Z,36.33
2022-09-05T13:28:03.199Z,36.42
2022-09-05T13:29:21.211Z,36.27
2022-09-05T13:37:37.053Z,36.29
2022-09-05T13:37:59.805Z,36.41
2022-09-05T13:37:59.886Z,36.38
2022-09-05T13:38:04.490Z,36.61
2022-09-05T13:38:04.873Z,36.63
2022-09-05T13:38:15.190Z,36.54
2022-09-05T13:39:08.275Z,36.63
2022-09-05T13:40:28.398Z,36.70
2022-09-05T13:41:50.391Z,36.75
2022-09-05T13:43:07.880Z,36.83
2022-09-05T13:44:28.274Z,36.74
2022-09-05T13:45:52.938Z,36.52
2022-09-05T13:47:29.397Z,36.35
2022-09-05T13:50:05.074Z,36.27
2022-09-05T13:51:23.347Z,36.29
2022-09-05T13:52:42.141Z,36.38
2022-09-05T13:54:01.529Z,36.49
2022-09-05T13:55:19.026Z,36.41
2022-09-05T13:56:36.731Z,36.47
2022-09-05T13:57:56.430Z,36.54
2022-09-05T13:59:14.544Z,36.67
2022-09-05T14:00:33.432Z,36.66
2022-09-05T14:02:23.803Z,36.82
2022-09-05T14:05:09.393Z,36.89
2022-09-05T14:06:46.988Z,36.93
2022-09-05T14:07:50.597Z,36.93
2022-09-05T14:10:32.271Z,36.67
2022-09-05T14:11:52.239Z,36.41
2022-09-05T14:13:10.609Z,36.33
2022-09-05T14:15:52.721Z,36.47
2022-09-05T14:18:34.074Z,36.45
2022-09-05T14:19:53.654Z,36.41
2022-09-05T14:21:12.132Z,36.41
2022-09-05T14:22:30.958Z,36.30
2022-09-05T14:23:49.005Z,36.20
2022-09-05T14:25:06.357Z,36.11
2022-09-05T14:26:24.019Z,35.92
2022-09-05T14:27:41.496Z,35.79
2022-09-05T14:28:59.647Z,35.76
2022-09-05T14:32:09.293Z,35.60
2022-09-05T14:37:34.497Z,35.48
2022-09-05T14:37:39.369Z,35.14
2022-09-05T14:37:41.895Z,35.38
2022-09-05T14:37:54.600Z,35.05
2022-09-05T14:38:00.509Z,35.20
2022-09-05T14:38:35.723Z,35.34
2022-09-05T14:39:53.098Z,35.46
2022-09-05T14:41:11.138Z,35.48
2022-09-05T14:42:28.976Z,35.53
2022-09-05T14:43:47.650Z,35.66
2022-09-05T14:45:06.065Z,35.72
2022-09-05T14:46:22.756Z,35.65
2022-09-05T14:47:40.052Z,35.60
2022-09-05T14:48:57.588Z,35.60
2022-09-05T14:50:21.187Z,35.56
2022-09-05T14:51:39.652Z,35.50
2022-09-05T14:55:51.408Z,35.46
2022-09-05T15:02:38.503Z,35.29
2022-09-05T15:02:45.491Z,34.97
2022-09-05T15:02:46.362Z,35.05
2022-09-05T15:02:49.359Z,35.13
2022-09-05T15:03:00.344Z,34.86
2022-09-05T15:05:32.227Z,34.87
2022-09-05T15:06:49.610Z,34.91
2022-09-05T15:08:24.022Z,34.76
2022-09-05T15:12:20.312Z,35.01
2022-09-05T15:12:25.031Z,34.82
2022-09-05T15:12:31.271Z,35.17
2022-09-05T15:13:37.051Z,35.14
2022-09-05T15:14:54.542Z,35.16
2022-09-05T15:16:13.290Z,35.14
2022-09-05T15:17:31.575Z,35.02
2022-09-05T15:18:50.606Z,34.83
2022-09-05T15:20:08.518Z,34.55
2022-09-05T15:21:33.858Z,34.42
2022-09-05T15:22:55.606Z,34.37
2022-09-05T15:24:14.409Z,34.34
2022-09-05T15:25:32.925Z,34.22
2022-09-05T15:26:51.199Z,33.98
2022-09-05T15:28:12.655Z,33.74
2022-09-05T15:29:31.098Z,33.66
2022-09-05T15:30:49.508Z,33.55
2022-09-05T15:32:09.777Z,33.49
2022-09-05T15:33:27.991Z,33.44
2022-09-05T15:34:46.387Z,33.42
2022-09-05T15:36:03.731Z,33.36
2022-09-05T15:37:22.813Z,33.39
2022-09-05T15:38:55.922Z,33.37
2022-09-05T15:40:03.902Z,33.41
2022-09-05T15:41:23.982Z,33.35
2022-09-05T15:42:40.666Z,33.17
2022-09-05T15:43:59.367Z,33.09
2022-09-05T15:45:18.882Z,33.06
2022-09-05T15:46:37.513Z,32.99
2022-09-05T15:47:55.940Z,32.92
2022-09-05T15:49:14.309Z,32.88
2022-09-05T15:50:32.660Z,32.83
2022-09-05T15:51:51.445Z,32.82
2022-09-05T15:53:10.281Z,32.82
2022-09-05T15:54:38.657Z,32.73
2022-09-05T15:55:52.315Z,32.73
2022-09-05T15:57:13.422Z,32.75
2022-09-05T15:58:53.969Z,32.77
2022-09-05T15:59:57.582Z,32.61
2022-09-05T16:01:30.243Z,32.53
2022-09-05T16:02:37.436Z,32.45
2022-09-05T16:10:29.369Z,32.36
2022-09-05T16:10:30.389Z,32.42
2022-09-05T16:10:45.159Z,32.39
2022-09-05T16:10:50.492Z,32.46
2022-09-05T16:10:50.570Z,32.33
2022-09-05T16:11:30.683Z,32.35
2022-09-05T16:12:13.889Z,32.39
2022-09-05T16:13:53.274Z,32.42
2022-09-05T16:15:39.443Z,32.27
2022-09-05T16:21:34.295Z,32.14
2022-09-05T16:23:14.057Z,32.08
2022-09-05T16:23:24.616Z,31.86
2022-09-05T16:23:31.197Z,31.99
2022-09-05T16:23:31.776Z,31.90
2022-09-05T16:23:39.592Z,31.79
2022-09-05T16:24:58.170Z,31.74
2022-09-05T16:26:01.321Z,31.68
2022-09-05T16:27:20.482Z,31.63
2022-09-05T16:28:38.236Z,31.57
2022-09-05T16:29:55.168Z,31.51
2022-09-05T16:31:12.529Z,31.49
2022-09-05T16:32:31.009Z,31.46
2022-09-05T16:33:49.621Z,31.34
2022-09-05T16:35:08.591Z,31.19
2022-09-05T16:36:26.330Z,31.10
2022-09-05T16:37:43.147Z,30.96
2022-09-05T16:38:59.629Z,30.85
2022-09-05T16:40:16.401Z,30.74
2022-09-05T16:41:33.610Z,30.65
2022-09-05T16:42:50.146Z,30.58
2022-09-05T16:44:08.571Z,30.48
2022-09-05T16:45:27.086Z,30.35
2022-09-05T16:46:46.660Z,30.28
2022-09-05T16:48:04.312Z,30.14
2022-09-05T16:49:42.095Z,30.02
2022-09-05T16:50:49.253Z,30.02
2022-09-05T16:52:07.302Z,29.96
2022-09-05T16:53:30.296Z,29.92
2022-09-05T16:54:47.942Z,29.93
2022-09-05T16:56:06.292Z,29.91
2022-09-05T16:57:24.624Z,29.92
2022-09-05T16:58:43.573Z,29.91
2022-09-05T17:00:01.185Z,29.86
2022-09-05T17:01:19.659Z,29.84
2022-09-05T17:02:38.112Z,29.81
2022-09-05T17:03:56.476Z,29.73
2022-09-05T17:05:15.889Z,29.65
2022-09-05T17:06:35.633Z,29.59
2022-09-05T17:07:52.018Z,29.54
2022-09-05T17:09:12.776Z,29.46
2022-09-05T17:10:29.949Z,29.39
2022-09-05T17:12:00.353Z,29.37
2022-09-05T17:13:10.495Z,29.28
2022-09-05T17:14:33.162Z,29.18
2022-09-05T17:15:52.421Z,29.17
2022-09-05T17:17:20.238Z,29.12
2022-09-05T17:18:32.059Z,29.10
2022-09-05T17:20:06.368Z,29.04
2022-09-05T17:21:13.654Z,28.98
2022-09-05T17:26:25.010Z,28.96
2022-09-05T17:29:17.678Z,28.94